sensor_id;sensor_type;location;lat;lon;timestamp;temperature;humidity
7016;DHT22;3548;48.402;9.990;2023-06-26T00:01:18;17.70;99.90
7016;DHT22;3548;48.402;9.990;2023-06-26T00:03:46;17.60;99.90
7016;DHT22;3548;48.402;9.990;2023-06-26T00:06:12;17.60;99.90
7016;DHT22;3548;48.402;9.990;2023-06-26T00:08:38;17.60;99.90
7016;DHT22;3548;48.402;9.990;2023-06-26T00:11:03;17.50;99.90
7016;DHT22;3548;48.402;9.990;2023-06-26T00:13:29;17.50;99.90
7016;DHT22;3548;48.402;9.990;2023-06-26T00:15:54;17.50;99.90
7016;DHT22;3548;48.402;9.990;2023-06-26T00:18:20;17.40;99.90
7016;DHT22;3548;48.402;9.990;2023-06-26T00:20:46;17.40;99.90
7016;DHT22;3548;48.402;9.990;2023-06-26T00:23:12;17.30;99.90
7016;DHT22;3548;48.402;9.990;2023-06-26T00:25:38;17.30;99.90
7016;DHT22;3548;48.402;9.990;2023-06-26T00:28:04;17.20;99.90
7016;DHT22;3548;48.402;9.990;2023-06-26T00:30:29;17.20;99.90
7016;DHT22;3548;48.402;9.990;2023-06-26T00:32:55;17.20;99.90
7016;DHT22;3548;48.402;9.990;2023-06-26T00:35:20;17.10;99.90
7016;DHT22;3548;48.402;9.990;2023-06-26T00:37:46;17.20;99.90
7016;DHT22;3548;48.402;9.990;2023-06-26T00:40:12;17.10;99.90
7016;DHT22;3548;48.402;9.990;2023-06-26T00:42:38;17.10;99.90
7016;DHT22;3548;48.402;9.990;2023-06-26T00:45:04;17.10;99.90
7016;DHT22;3548;48.402;9.990;2023-06-26T00:47:29;17.10;99.90
7016;DHT22;3548;48.402;9.990;2023-06-26T00:49:55;17.00;99.90
7016;DHT22;3548;48.402;9.990;2023-06-26T00:52:21;17.00;99.90
7016;DHT22;3548;48.402;9.990;2023-06-26T00:54:49;16.90;99.90
7016;DHT22;3548;48.402;9.990;2023-06-26T00:57:16;16.80;99.90
7016;DHT22;3548;48.402;9.990;2023-06-26T00:59:42;16.80;99.90
7016;DHT22;3548;48.402;9.990;2023-06-26T01:02:07;16.80;99.90
7016;DHT22;3548;48.402;9.990;2023-06-26T01:04:35;16.80;99.90
7016;DHT22;3548;48.402;9.990;2023-06-26T01:07:02;16.80;99.90
7016;DHT22;3548;48.402;9.990;2023-06-26T01:09:28;16.80;99.90
7016;DHT22;3548;48.402;9.990;2023-06-26T01:11:54;16.70;99.90
7016;DHT22;3548;48.402;9.990;2023-06-26T01:14:20;16.70;99.90
7016;DHT22;3548;48.402;9.990;2023-06-26T01:16:46;16.70;99.90
7016;DHT22;3548;48.402;9.990;2023-06-26T01:19:24;16.70;99.90
7016;DHT22;3548;48.402;9.990;2023-06-26T01:21:56;16.60;99.90
7016;DHT22;3548;48.402;9.990;2023-06-26T01:24:25;16.60;99.90
7016;DHT22;3548;48.402;9.990;2023-06-26T01:26:54;16.60;99.90
7016;DHT22;3548;48.402;9.990;2023-06-26T01:29:21;16.60;99.90
7016;DHT22;3548;48.402;9.990;2023-06-26T01:31:49;16.60;99.90
7016;DHT22;3548;48.402;9.990;2023-06-26T01:34:18;16.50;99.90
7016;DHT22;3548;48.402;9.990;2023-06-26T01:36:45;16.50;99.90
7016;DHT22;3548;48.402;9.990;2023-06-26T01:39:18;16.50;99.90
7016;DHT22;3548;48.402;9.990;2023-06-26T01:41:44;16.50;99.90
7016;DHT22;3548;48.402;9.990;2023-06-26T01:47:00;16.40;99.90
7016;DHT22;3548;48.402;9.990;2023-06-26T01:55:02;16.40;99.90
7016;DHT22;3548;48.402;9.990;2023-06-26T01:57:30;16.40;99.90
7016;DHT22;3548;48.402;9.990;2023-06-26T01:59:56;16.40;99.90
7016;DHT22;3548;48.402;9.990;2023-06-26T02:02:24;16.40;99.90
7016;DHT22;3548;48.402;9.990;2023-06-26T02:04:51;16.30;99.90
7016;DHT22;3548;48.402;9.990;2023-06-26T02:07:16;16.30;99.90
7016;DHT22;3548;48.402;9.990;2023-06-26T02:09:42;16.30;99.90
7016;DHT22;3548;48.402;9.990;2023-06-26T02:12:09;16.20;99.90
7016;DHT22;3548;48.402;9.990;2023-06-26T02:14:34;16.20;99.90
7016;DHT22;3548;48.402;9.990;2023-06-26T02:17:00;16.20;99.90
7016;DHT22;3548;48.402;9.990;2023-06-26T02:19:26;16.10;99.90
7016;DHT22;3548;48.402;9.990;2023-06-26T02:21:53;16.10;99.90
7016;DHT22;3548;48.402;9.990;2023-06-26T02:24:19;16.10;99.90
7016;DHT22;3548;48.402;9.990;2023-06-26T02:26:44;16.10;99.90
7016;DHT22;3548;48.402;9.990;2023-06-26T02:29:11;16.00;99.90
7016;DHT22;3548;48.402;9.990;2023-06-26T02:31:37;16.00;99.90
7016;DHT22;3548;48.402;9.990;2023-06-26T02:34:04;16.00;99.90
7016;DHT22;3548;48.402;9.990;2023-06-26T02:36:29;15.90;99.90
7016;DHT22;3548;48.402;9.990;2023-06-26T02:38:55;15.90;99.90
7016;DHT22;3548;48.402;9.990;2023-06-26T02:41:20;15.90;99.90
7016;DHT22;3548;48.402;9.990;2023-06-26T02:43:46;15.80;99.90
7016;DHT22;3548;48.402;9.990;2023-06-26T02:46:11;15.80;99.90
7016;DHT22;3548;48.402;9.990;2023-06-26T02:48:37;15.70;99.90
7016;DHT22;3548;48.402;9.990;2023-06-26T02:51:02;15.70;99.90
7016;DHT22;3548;48.402;9.990;2023-06-26T02:53:28;15.70;99.90
7016;DHT22;3548;48.402;9.990;2023-06-26T02:55:53;15.60;99.90
7016;DHT22;3548;48.402;9.990;2023-06-26T02:58:19;15.60;99.90
7016;DHT22;3548;48.402;9.990;2023-06-26T03:00:45;15.60;99.90
7016;DHT22;3548;48.402;9.990;2023-06-26T03:03:10;15.60;99.90
7016;DHT22;3548;48.402;9.990;2023-06-26T03:05:38;15.60;99.90
7016;DHT22;3548;48.402;9.990;2023-06-26T03:08:03;15.60;99.90
7016;DHT22;3548;48.402;9.990;2023-06-26T03:10:29;15.60;99.90
7016;DHT22;3548;48.402;9.990;2023-06-26T03:12:55;15.60;99.90
7016;DHT22;3548;48.402;9.990;2023-06-26T03:15:20;15.60;99.90
7016;DHT22;3548;48.402;9.990;2023-06-26T03:17:46;15.60;99.90
7016;DHT22;3548;48.402;9.990;2023-06-26T03:20:11;15.60;99.90
7016;DHT22;3548;48.402;9.990;2023-06-26T03:22:37;15.60;99.90
7016;DHT22;3548;48.402;9.990;2023-06-26T03:25:03;15.60;99.90
7016;DHT22;3548;48.402;9.990;2023-06-26T03:27:28;15.60;99.90
7016;DHT22;3548;48.402;9.990;2023-06-26T03:29:54;15.60;99.90
7016;DHT22;3548;48.402;9.990;2023-06-26T03:32:19;15.50;99.90
7016;DHT22;3548;48.402;9.990;2023-06-26T03:34:45;15.50;99.90
7016;DHT22;3548;48.402;9.990;2023-06-26T03:37:11;15.50;99.90
7016;DHT22;3548;48.402;9.990;2023-06-26T03:39:36;15.50;99.90
7016;DHT22;3548;48.402;9.990;2023-06-26T03:42:02;15.60;99.90
7016;DHT22;3548;48.402;9.990;2023-06-26T03:44:28;15.60;99.90
7016;DHT22;3548;48.402;9.990;2023-06-26T03:46:53;15.60;99.90
7016;DHT22;3548;48.402;9.990;2023-06-26T03:49:19;15.60;99.90
7016;DHT22;3548;48.402;9.990;2023-06-26T03:51:45;15.60;99.90
7016;DHT22;3548;48.402;9.990;2023-06-26T03:54:10;15.60;99.90
7016;DHT22;3548;48.402;9.990;2023-06-26T03:56:36;15.70;99.90
7016;DHT22;3548;48.402;9.990;2023-06-26T03:59:01;15.80;99.90
7016;DHT22;3548;48.402;9.990;2023-06-26T04:01:27;15.80;99.90
7016;DHT22;3548;48.402;9.990;2023-06-26T04:03:53;16.00;99.90
7016;DHT22;3548;48.402;9.990;2023-06-26T04:06:18;16.50;99.90
7016;DHT22;3548;48.402;9.990;2023-06-26T04:08:44;17.10;99.90
7016;DHT22;3548;48.402;9.990;2023-06-26T04:11:10;17.80;99.90
7016;DHT22;3548;48.402;9.990;2023-06-26T04:13:35;18.40;99.90
7016;DHT22;3548;48.402;9.990;2023-06-26T04:16:01;18.90;99.90
7016;DHT22;3548;48.402;9.990;2023-06-26T04:18:26;19.40;99.90
7016;DHT22;3548;48.402;9.990;2023-06-26T04:21:13;20.00;99.90
7016;DHT22;3548;48.402;9.990;2023-06-26T04:23:39;20.50;99.60
7016;DHT22;3548;48.402;9.990;2023-06-26T04:26:06;21.00;99.10
7016;DHT22;3548;48.402;9.990;2023-06-26T04:28:33;21.60;98.00
7016;DHT22;3548;48.402;9.990;2023-06-26T04:30:59;22.20;97.00
7016;DHT22;3548;48.402;9.990;2023-06-26T04:33:26;22.80;95.10
7016;DHT22;3548;48.402;9.990;2023-06-26T04:35:52;23.20;94.30
7016;DHT22;3548;48.402;9.990;2023-06-26T04:38:19;23.60;93.50
7016;DHT22;3548;48.402;9.990;2023-06-26T04:40:45;24.00;92.00
7016;DHT22;3548;48.402;9.990;2023-06-26T04:43:10;24.20;90.70
7016;DHT22;3548;48.402;9.990;2023-06-26T04:45:36;24.40;90.40
7016;DHT22;3548;48.402;9.990;2023-06-26T04:48:02;24.50;89.60
7016;DHT22;3548;48.402;9.990;2023-06-26T04:50:28;24.70;88.30
7016;DHT22;3548;48.402;9.990;2023-06-26T04:52:55;24.70;88.40
7016;DHT22;3548;48.402;9.990;2023-06-26T04:55:20;24.80;86.80
7016;DHT22;3548;48.402;9.990;2023-06-26T04:57:47;24.90;85.40
7016;DHT22;3548;48.402;9.990;2023-06-26T05:00:13;24.90;85.70
7016;DHT22;3548;48.402;9.990;2023-06-26T05:02:39;24.90;85.20
7016;DHT22;3548;48.402;9.990;2023-06-26T05:05:04;25.00;85.20
7016;DHT22;3548;48.402;9.990;2023-06-26T05:07:30;25.00;84.90
7016;DHT22;3548;48.402;9.990;2023-06-26T05:09:55;24.90;84.50
7016;DHT22;3548;48.402;9.990;2023-06-26T05:12:21;24.80;84.10
7016;DHT22;3548;48.402;9.990;2023-06-26T05:14:46;24.40;84.10
7016;DHT22;3548;48.402;9.990;2023-06-26T05:17:14;23.90;85.60
7016;DHT22;3548;48.402;9.990;2023-06-26T05:19:39;23.30;87.80
7016;DHT22;3548;48.402;9.990;2023-06-26T05:22:06;22.90;88.80
7016;DHT22;3548;48.402;9.990;2023-06-26T05:24:35;22.40;89.60
7016;DHT22;3548;48.402;9.990;2023-06-26T05:27:01;21.90;90.50
7016;DHT22;3548;48.402;9.990;2023-06-26T05:29:28;21.50;91.20
7016;DHT22;3548;48.402;9.990;2023-06-26T05:31:56;21.10;91.70
7016;DHT22;3548;48.402;9.990;2023-06-26T05:34:23;20.90;92.40
7016;DHT22;3548;48.402;9.990;2023-06-26T05:36:51;20.70;92.70
7016;DHT22;3548;48.402;9.990;2023-06-26T05:39:17;20.60;93.30
7016;DHT22;3548;48.402;9.990;2023-06-26T05:41:46;20.40;93.60
7016;DHT22;3548;48.402;9.990;2023-06-26T05:44:11;20.40;94.10
7016;DHT22;3548;48.402;9.990;2023-06-26T05:46:38;20.40;94.40
7016;DHT22;3548;48.402;9.990;2023-06-26T05:49:03;20.40;94.50
7016;DHT22;3548;48.402;9.990;2023-06-26T05:51:29;20.40;94.60
7016;DHT22;3548;48.402;9.990;2023-06-26T05:53:55;20.50;94.80
7016;DHT22;3548;48.402;9.990;2023-06-26T05:56:21;20.60;95.20
7016;DHT22;3548;48.402;9.990;2023-06-26T05:58:47;20.70;95.20
7016;DHT22;3548;48.402;9.990;2023-06-26T06:01:13;20.70;95.20
7016;DHT22;3548;48.402;9.990;2023-06-26T06:03:39;20.70;95.20
7016;DHT22;3548;48.402;9.990;2023-06-26T06:06:05;20.70;95.30
7016;DHT22;3548;48.402;9.990;2023-06-26T06:08:31;20.70;95.60
7016;DHT22;3548;48.402;9.990;2023-06-26T06:10:56;20.70;95.50
7016;DHT22;3548;48.402;9.990;2023-06-26T06:13:22;20.80;95.60
7016;DHT22;3548;48.402;9.990;2023-06-26T06:15:47;20.90;95.50
7016;DHT22;3548;48.402;9.990;2023-06-26T06:18:13;21.00;95.30
7016;DHT22;3548;48.402;9.990;2023-06-26T06:20:38;21.10;95.20
7016;DHT22;3548;48.402;9.990;2023-06-26T06:23:04;21.10;95.20
7016;DHT22;3548;48.402;9.990;2023-06-26T06:25:29;21.20;95.50
7016;DHT22;3548;48.402;9.990;2023-06-26T06:27:55;21.30;95.40
7016;DHT22;3548;48.402;9.990;2023-06-26T06:30:21;21.40;95.10
7016;DHT22;3548;48.402;9.990;2023-06-26T06:32:46;21.50;95.00
7016;DHT22;3548;48.402;9.990;2023-06-26T06:35:17;21.60;94.80
7016;DHT22;3548;48.402;9.990;2023-06-26T06:37:42;21.70;95.00
7016;DHT22;3548;48.402;9.990;2023-06-26T06:40:09;21.80;94.70
7016;DHT22;3548;48.402;9.990;2023-06-26T06:42:35;21.90;94.80
7016;DHT22;3548;48.402;9.990;2023-06-26T06:45:04;21.90;94.90
7016;DHT22;3548;48.402;9.990;2023-06-26T06:47:31;22.00;94.90
7016;DHT22;3548;48.402;9.990;2023-06-26T06:49:57;22.10;94.80
7016;DHT22;3548;48.402;9.990;2023-06-26T06:52:23;22.10;94.80
7016;DHT22;3548;48.402;9.990;2023-06-26T06:54:53;22.30;94.90
7016;DHT22;3548;48.402;9.990;2023-06-26T06:57:19;22.40;94.80
7016;DHT22;3548;48.402;9.990;2023-06-26T06:59:45;22.50;94.80
7016;DHT22;3548;48.402;9.990;2023-06-26T07:02:13;22.70;94.70
7016;DHT22;3548;48.402;9.990;2023-06-26T07:04:38;22.80;94.60
7016;DHT22;3548;48.402;9.990;2023-06-26T07:07:04;23.00;94.50
7016;DHT22;3548;48.402;9.990;2023-06-26T07:09:29;23.10;94.40
7016;DHT22;3548;48.402;9.990;2023-06-26T07:11:55;23.10;94.20
7016;DHT22;3548;48.402;9.990;2023-06-26T07:14:20;23.20;94.20
7016;DHT22;3548;48.402;9.990;2023-06-26T07:16:46;23.30;94.40
7016;DHT22;3548;48.402;9.990;2023-06-26T07:19:11;23.40;94.10
7016;DHT22;3548;48.402;9.990;2023-06-26T07:21:37;23.60;93.70
7016;DHT22;3548;48.402;9.990;2023-06-26T07:24:03;23.60;93.50
7016;DHT22;3548;48.402;9.990;2023-06-26T07:26:28;23.70;93.20
7016;DHT22;3548;48.402;9.990;2023-06-26T07:28:54;23.80;92.90
7016;DHT22;3548;48.402;9.990;2023-06-26T07:31:22;23.80;92.90
7016;DHT22;3548;48.402;9.990;2023-06-26T07:33:47;23.90;92.80
7016;DHT22;3548;48.402;9.990;2023-06-26T07:36:13;24.00;92.70
7016;DHT22;3548;48.402;9.990;2023-06-26T07:38:38;24.10;92.80
7016;DHT22;3548;48.402;9.990;2023-06-26T07:41:04;24.30;92.70
7016;DHT22;3548;48.402;9.990;2023-06-26T07:43:29;24.30;92.40
7016;DHT22;3548;48.402;9.990;2023-06-26T07:45:56;24.50;92.40
7016;DHT22;3548;48.402;9.990;2023-06-26T07:48:24;24.60;92.30
7016;DHT22;3548;48.402;9.990;2023-06-26T07:50:49;24.70;92.20
7016;DHT22;3548;48.402;9.990;2023-06-26T07:53:15;24.80;91.80
7016;DHT22;3548;48.402;9.990;2023-06-26T07:55:40;25.00;91.40
7016;DHT22;3548;48.402;9.990;2023-06-26T07:58:07;25.00;91.30
7016;DHT22;3548;48.402;9.990;2023-06-26T08:00:33;25.20;91.20
7016;DHT22;3548;48.402;9.990;2023-06-26T08:02:58;25.30;91.10
7016;DHT22;3548;48.402;9.990;2023-06-26T08:05:24;25.40;90.90
7016;DHT22;3548;48.402;9.990;2023-06-26T08:07:49;25.60;90.70
7016;DHT22;3548;48.402;9.990;2023-06-26T08:10:15;25.70;90.60
7016;DHT22;3548;48.402;9.990;2023-06-26T08:12:40;25.80;90.50
7016;DHT22;3548;48.402;9.990;2023-06-26T08:15:08;25.90;90.40
7016;DHT22;3548;48.402;9.990;2023-06-26T08:17:35;26.00;90.10
7016;DHT22;3548;48.402;9.990;2023-06-26T08:20:01;26.10;89.90
7016;DHT22;3548;48.402;9.990;2023-06-26T08:22:27;26.20;90.00
7016;DHT22;3548;48.402;9.990;2023-06-26T08:24:52;26.30;90.00
7016;DHT22;3548;48.402;9.990;2023-06-26T08:27:18;26.50;89.70
7016;DHT22;3548;48.402;9.990;2023-06-26T08:29:43;26.70;89.10
7016;DHT22;3548;48.402;9.990;2023-06-26T08:32:09;26.80;88.30
7016;DHT22;3548;48.402;9.990;2023-06-26T08:34:34;27.00;87.90
7016;DHT22;3548;48.402;9.990;2023-06-26T08:37:00;27.20;87.40
7016;DHT22;3548;48.402;9.990;2023-06-26T08:39:25;27.40;86.10
7016;DHT22;3548;48.402;9.990;2023-06-26T08:41:52;27.60;85.90
7016;DHT22;3548;48.402;9.990;2023-06-26T08:44:18;27.70;85.10
7016;DHT22;3548;48.402;9.990;2023-06-26T08:46:43;27.90;84.60
7016;DHT22;3548;48.402;9.990;2023-06-26T08:49:18;27.90;83.50
7016;DHT22;3548;48.402;9.990;2023-06-26T08:51:55;28.10;83.30
7016;DHT22;3548;48.402;9.990;2023-06-26T08:54:31;28.20;82.10
7016;DHT22;3548;48.402;9.990;2023-06-26T08:57:01;28.30;82.00
7016;DHT22;3548;48.402;9.990;2023-06-26T08:59:27;28.40;82.40
7016;DHT22;3548;48.402;9.990;2023-06-26T09:01:53;28.50;82.20
7016;DHT22;3548;48.402;9.990;2023-06-26T09:04:19;28.60;81.70
7016;DHT22;3548;48.402;9.990;2023-06-26T09:06:45;28.80;81.80
7016;DHT22;3548;48.402;9.990;2023-06-26T09:09:10;28.80;81.00
7016;DHT22;3548;48.402;9.990;2023-06-26T09:11:36;28.90;80.60
7016;DHT22;3548;48.402;9.990;2023-06-26T09:14:01;29.00;80.00
7016;DHT22;3548;48.402;9.990;2023-06-26T09:16:30;29.10;78.80
7016;DHT22;3548;48.402;9.990;2023-06-26T09:18:56;29.20;78.70
7016;DHT22;3548;48.402;9.990;2023-06-26T09:21:22;29.30;78.00
7016;DHT22;3548;48.402;9.990;2023-06-26T09:23:50;29.40;77.00
7016;DHT22;3548;48.402;9.990;2023-06-26T09:26:15;29.40;74.60
7016;DHT22;3548;48.402;9.990;2023-06-26T09:28:42;29.50;75.50
7016;DHT22;3548;48.402;9.990;2023-06-26T09:36:04;29.30;78.00
7016;DHT22;3548;48.402;9.990;2023-06-26T09:38:30;29.30;65.90
7016;DHT22;3548;48.402;9.990;2023-06-26T09:40:56;29.00;65.70
7016;DHT22;3548;48.402;9.990;2023-06-26T09:43:21;28.90;65.90
7016;DHT22;3548;48.402;9.990;2023-06-26T09:45:47;28.90;65.70
7016;DHT22;3548;48.402;9.990;2023-06-26T09:48:14;28.90;64.80
7016;DHT22;3548;48.402;9.990;2023-06-26T09:50:41;28.90;63.60
7016;DHT22;3548;48.402;9.990;2023-06-26T09:53:11;29.00;63.80
7016;DHT22;3548;48.402;9.990;2023-06-26T09:55:39;29.20;64.00
7016;DHT22;3548;48.402;9.990;2023-06-26T09:58:06;29.30;63.20
7016;DHT22;3548;48.402;9.990;2023-06-26T10:00:32;29.50;62.90
7016;DHT22;3548;48.402;9.990;2023-06-26T10:03:00;29.50;62.00
7016;DHT22;3548;48.402;9.990;2023-06-26T10:05:26;29.60;61.90
7016;DHT22;3548;48.402;9.990;2023-06-26T10:07:53;29.60;61.20
7016;DHT22;3548;48.402;9.990;2023-06-26T10:10:20;29.50;60.90
7016;DHT22;3548;48.402;9.990;2023-06-26T10:12:49;29.50;60.50
7016;DHT22;3548;48.402;9.990;2023-06-26T10:15:16;29.70;60.90
7016;DHT22;3548;48.402;9.990;2023-06-26T10:17:43;29.90;59.50
7016;DHT22;3548;48.402;9.990;2023-06-26T10:20:10;30.10;59.40
7016;DHT22;3548;48.402;9.990;2023-06-26T10:22:46;30.30;59.10
7016;DHT22;3548;48.402;9.990;2023-06-26T10:25:17;30.40;58.20
7016;DHT22;3548;48.402;9.990;2023-06-26T10:27:54;30.50;57.40
7016;DHT22;3548;48.402;9.990;2023-06-26T10:30:24;30.50;57.00
7016;DHT22;3548;48.402;9.990;2023-06-26T10:32:52;30.40;56.50
7016;DHT22;3548;48.402;9.990;2023-06-26T10:35:18;30.30;56.70
7016;DHT22;3548;48.402;9.990;2023-06-26T10:37:48;30.20;55.30
7016;DHT22;3548;48.402;9.990;2023-06-26T10:40:20;30.20;55.50
7016;DHT22;3548;48.402;9.990;2023-06-26T10:42:46;30.20;55.90
7016;DHT22;3548;48.402;9.990;2023-06-26T10:45:19;30.20;55.70
7016;DHT22;3548;48.402;9.990;2023-06-26T10:47:47;30.40;55.20
7016;DHT22;3548;48.402;9.990;2023-06-26T10:52:43;30.90;53.50
7016;DHT22;3548;48.402;9.990;2023-06-26T10:55:09;31.10;53.70
7016;DHT22;3548;48.402;9.990;2023-06-26T10:57:36;31.20;53.20
7016;DHT22;3548;48.402;9.990;2023-06-26T11:00:09;31.20;53.00
7016;DHT22;3548;48.402;9.990;2023-06-26T11:02:51;31.10;52.90
7016;DHT22;3548;48.402;9.990;2023-06-26T11:05:27;31.20;53.40
7016;DHT22;3548;48.402;9.990;2023-06-26T11:08:09;31.20;53.20
7016;DHT22;3548;48.402;9.990;2023-06-26T11:13:15;31.30;52.70
7016;DHT22;3548;48.402;9.990;2023-06-26T11:15:43;31.10;51.70
7016;DHT22;3548;48.402;9.990;2023-06-26T11:18:09;31.00;52.70
7016;DHT22;3548;48.402;9.990;2023-06-26T11:20:35;31.00;52.90
7016;DHT22;3548;48.402;9.990;2023-06-26T11:23:03;30.90;52.80
7016;DHT22;3548;48.402;9.990;2023-06-26T11:25:34;30.80;52.60
7016;DHT22;3548;48.402;9.990;2023-06-26T11:28:00;30.80;52.40
7016;DHT22;3548;48.402;9.990;2023-06-26T11:30:26;31.00;52.50
7016;DHT22;3548;48.402;9.990;2023-06-26T11:32:52;31.30;52.00
7016;DHT22;3548;48.402;9.990;2023-06-26T11:35:24;31.40;51.10
7016;DHT22;3548;48.402;9.990;2023-06-26T11:37:59;31.40;51.20
7016;DHT22;3548;48.402;9.990;2023-06-26T11:40:29;31.40;51.30
7016;DHT22;3548;48.402;9.990;2023-06-26T11:42:58;31.50;51.60
7016;DHT22;3548;48.402;9.990;2023-06-26T11:45:28;31.60;51.30
7016;DHT22;3548;48.402;9.990;2023-06-26T11:47:55;31.80;51.10
7016;DHT22;3548;48.402;9.990;2023-06-26T11:50:22;31.80;49.30
7016;DHT22;3548;48.402;9.990;2023-06-26T11:52:55;31.80;49.50
7016;DHT22;3548;48.402;9.990;2023-06-26T11:55:22;31.80;49.90
7016;DHT22;3548;48.402;9.990;2023-06-26T11:57:55;31.80;50.40
7016;DHT22;3548;48.402;9.990;2023-06-26T12:00:21;31.80;49.90
7016;DHT22;3548;48.402;9.990;2023-06-26T12:02:47;31.70;50.50
7016;DHT22;3548;48.402;9.990;2023-06-26T12:05:14;31.80;50.00
7016;DHT22;3548;48.402;9.990;2023-06-26T12:07:41;31.70;49.30
7016;DHT22;3548;48.402;9.990;2023-06-26T12:10:08;31.60;49.70
7016;DHT22;3548;48.402;9.990;2023-06-26T12:12:34;31.50;49.50
7016;DHT22;3548;48.402;9.990;2023-06-26T12:15:00;31.70;49.70
7016;DHT22;3548;48.402;9.990;2023-06-26T12:17:26;31.90;49.50
7016;DHT22;3548;48.402;9.990;2023-06-26T12:19:51;32.20;49.70
7016;DHT22;3548;48.402;9.990;2023-06-26T12:22:18;32.20;50.50
7016;DHT22;3548;48.402;9.990;2023-06-26T12:24:44;32.00;48.90
7016;DHT22;3548;48.402;9.990;2023-06-26T12:27:15;31.80;49.90
7016;DHT22;3548;48.402;9.990;2023-06-26T12:29:53;31.50;50.80
7016;DHT22;3548;48.402;9.990;2023-06-26T12:32:18;31.30;50.90
7016;DHT22;3548;48.402;9.990;2023-06-26T12:34:49;31.20;51.50
7016;DHT22;3548;48.402;9.990;2023-06-26T12:37:15;31.20;52.00
7016;DHT22;3548;48.402;9.990;2023-06-26T12:39:57;31.40;51.70
7016;DHT22;3548;48.402;9.990;2023-06-26T12:42:24;31.50;52.60
7016;DHT22;3548;48.402;9.990;2023-06-26T12:44:51;31.30;53.30
7016;DHT22;3548;48.402;9.990;2023-06-26T12:47:19;31.00;54.20
7016;DHT22;3548;48.402;9.990;2023-06-26T12:49:49;30.70;55.10
7016;DHT22;3548;48.402;9.990;2023-06-26T12:52:15;30.50;55.00
7016;DHT22;3548;48.402;9.990;2023-06-26T12:54:43;30.30;55.50
7016;DHT22;3548;48.402;9.990;2023-06-26T12:57:09;30.20;56.30
7016;DHT22;3548;48.402;9.990;2023-06-26T12:59:37;30.20;55.90
7016;DHT22;3548;48.402;9.990;2023-06-26T13:02:03;30.20;55.90
7016;DHT22;3548;48.402;9.990;2023-06-26T13:04:29;30.10;55.40
7016;DHT22;3548;48.402;9.990;2023-06-26T13:06:54;30.20;56.30
7016;DHT22;3548;48.402;9.990;2023-06-26T13:09:21;30.30;56.20
7016;DHT22;3548;48.402;9.990;2023-06-26T13:11:46;30.50;56.60
7016;DHT22;3548;48.402;9.990;2023-06-26T13:14:12;30.50;56.50
7016;DHT22;3548;48.402;9.990;2023-06-26T13:16:38;30.70;56.90
7016;DHT22;3548;48.402;9.990;2023-06-26T13:19:03;30.90;56.80
7016;DHT22;3548;48.402;9.990;2023-06-26T13:21:29;31.10;55.90
7016;DHT22;3548;48.402;9.990;2023-06-26T13:23:55;31.30;54.70
7016;DHT22;3548;48.402;9.990;2023-06-26T13:26:21;31.30;54.40
7016;DHT22;3548;48.402;9.990;2023-06-26T13:28:48;31.40;54.90
7016;DHT22;3548;48.402;9.990;2023-06-26T13:31:14;31.50;54.70
7016;DHT22;3548;48.402;9.990;2023-06-26T13:33:39;31.30;54.90
7016;DHT22;3548;48.402;9.990;2023-06-26T13:36:05;31.30;55.00
7016;DHT22;3548;48.402;9.990;2023-06-26T13:38:33;31.30;54.20
7016;DHT22;3548;48.402;9.990;2023-06-26T13:40:59;31.30;54.80
7016;DHT22;3548;48.402;9.990;2023-06-26T13:43:26;31.30;54.40
7016;DHT22;3548;48.402;9.990;2023-06-26T13:45:52;31.50;54.20
7016;DHT22;3548;48.402;9.990;2023-06-26T13:48:18;31.30;55.30
7016;DHT22;3548;48.402;9.990;2023-06-26T13:50:45;31.10;55.60
7016;DHT22;3548;48.402;9.990;2023-06-26T13:53:10;31.10;55.50
7016;DHT22;3548;48.402;9.990;2023-06-26T13:55:36;31.30;55.00
7016;DHT22;3548;48.402;9.990;2023-06-26T13:58:06;31.30;55.00
7016;DHT22;3548;48.402;9.990;2023-06-26T14:00:33;31.20;55.20
7016;DHT22;3548;48.402;9.990;2023-06-26T14:03:00;31.10;55.00
7016;DHT22;3548;48.402;9.990;2023-06-26T14:05:26;31.10;54.80
7016;DHT22;3548;48.402;9.990;2023-06-26T14:07:52;31.20;54.80
7016;DHT22;3548;48.402;9.990;2023-06-26T14:10:19;31.30;54.10
7016;DHT22;3548;48.402;9.990;2023-06-26T14:12:44;31.30;53.40
7016;DHT22;3548;48.402;9.990;2023-06-26T14:15:10;31.50;53.70
7016;DHT22;3548;48.402;9.990;2023-06-26T14:17:35;31.70;53.80
7016;DHT22;3548;48.402;9.990;2023-06-26T14:20:01;31.90;53.80
7016;DHT22;3548;48.402;9.990;2023-06-26T14:22:27;31.80;53.40
7016;DHT22;3548;48.402;9.990;2023-06-26T14:24:53;31.80;53.80
7016;DHT22;3548;48.402;9.990;2023-06-26T14:27:18;31.70;54.10
7016;DHT22;3548;48.402;9.990;2023-06-26T14:29:44;31.60;53.60
7016;DHT22;3548;48.402;9.990;2023-06-26T14:32:10;31.50;53.90
7016;DHT22;3548;48.402;9.990;2023-06-26T14:34:36;31.30;54.10
7016;DHT22;3548;48.402;9.990;2023-06-26T14:37:01;31.10;54.60
7016;DHT22;3548;48.402;9.990;2023-06-26T14:39:27;31.10;54.80
7016;DHT22;3548;48.402;9.990;2023-06-26T14:41:52;30.90;54.70
7016;DHT22;3548;48.402;9.990;2023-06-26T14:44:18;30.70;55.20
7016;DHT22;3548;48.402;9.990;2023-06-26T14:46:43;30.60;55.70
7016;DHT22;3548;48.402;9.990;2023-06-26T14:49:09;30.60;56.10
7016;DHT22;3548;48.402;9.990;2023-06-26T14:51:35;30.60;56.10
7016;DHT22;3548;48.402;9.990;2023-06-26T14:54:00;30.60;56.10
7016;DHT22;3548;48.402;9.990;2023-06-26T14:56:26;30.60;56.50
7016;DHT22;3548;48.402;9.990;2023-06-26T14:58:52;30.50;57.00
7016;DHT22;3548;48.402;9.990;2023-06-26T15:01:19;30.40;56.30
7016;DHT22;3548;48.402;9.990;2023-06-26T15:03:47;30.40;56.50
7016;DHT22;3548;48.402;9.990;2023-06-26T15:06:13;30.40;56.80
7016;DHT22;3548;48.402;9.990;2023-06-26T15:08:39;30.30;56.80
7016;DHT22;3548;48.402;9.990;2023-06-26T15:11:05;30.40;57.20
7016;DHT22;3548;48.402;9.990;2023-06-26T15:13:30;30.50;57.60
7016;DHT22;3548;48.402;9.990;2023-06-26T15:15:56;30.70;57.10
7016;DHT22;3548;48.402;9.990;2023-06-26T15:18:21;30.90;56.80
7016;DHT22;3548;48.402;9.990;2023-06-26T15:20:47;30.80;57.00
7016;DHT22;3548;48.402;9.990;2023-06-26T15:23:12;30.60;57.50
7016;DHT22;3548;48.402;9.990;2023-06-26T15:25:38;30.50;58.10
7016;DHT22;3548;48.402;9.990;2023-06-26T15:28:05;30.60;58.30
7016;DHT22;3548;48.402;9.990;2023-06-26T15:30:31;30.50;57.60
7016;DHT22;3548;48.402;9.990;2023-06-26T15:32:56;30.40;58.00
7016;DHT22;3548;48.402;9.990;2023-06-26T15:35:22;30.50;58.50
7016;DHT22;3548;48.402;9.990;2023-06-26T15:37:48;30.30;58.80
7016;DHT22;3548;48.402;9.990;2023-06-26T15:40:15;30.00;59.30
7016;DHT22;3548;48.402;9.990;2023-06-26T15:42:51;29.90;59.50
7016;DHT22;3548;48.402;9.990;2023-06-26T15:45:18;29.90;60.00
7016;DHT22;3548;48.402;9.990;2023-06-26T15:47:44;30.00;59.80
7016;DHT22;3548;48.402;9.990;2023-06-26T15:50:10;30.10;59.40
7016;DHT22;3548;48.402;9.990;2023-06-26T15:52:37;30.10;58.90
7016;DHT22;3548;48.402;9.990;2023-06-26T15:55:03;29.90;59.50
7016;DHT22;3548;48.402;9.990;2023-06-26T15:57:30;29.80;59.40
7016;DHT22;3548;48.402;9.990;2023-06-26T15:59:56;29.80;59.50
7016;DHT22;3548;48.402;9.990;2023-06-26T16:02:21;29.90;59.70
7016;DHT22;3548;48.402;9.990;2023-06-26T16:04:47;30.00;59.40
7016;DHT22;3548;48.402;9.990;2023-06-26T16:07:13;30.00;58.80
7016;DHT22;3548;48.402;9.990;2023-06-26T16:09:38;29.80;58.80
7016;DHT22;3548;48.402;9.990;2023-06-26T16:12:04;29.70;58.60
7016;DHT22;3548;48.402;9.990;2023-06-26T16:14:29;29.70;58.00
7016;DHT22;3548;48.402;9.990;2023-06-26T16:16:55;29.50;58.00